DRH weather

Dabra Airport
Dabra-Papua Island, Papua, Indonesia

Public forecast

Using degrees Celsius for public forecast. Weather courtesy of forecast.io.

Closest aviation weather report (METAR) to Dabra Airport

Closest report is Sentani International Airport, 121.5 nm (224.9 km) ENE. Retrieved 2019/10/21 13:30 UTC (7 minutes ago):

WAJJ 211330Z 00000KT 8000 FEW012 24/22 Q1009 NOSIG

Closest aviation forecast (TAF) to Dabra Airport

Forecast is more than 12 hours old.

Closest forecast is Sentani International Airport, 121.5 nm (224.9 km) ENE. Retrieved 2013/03/11 12:00 UTC (7 years ago):

TAF WAJJ 111100Z 1112/1212 29006KT 5000 HZ SCT016 TEMPO 1113/1121 4000 RA FEW014CB BECMG 1200/1202 28012KT 9999 TEMPO 1207/1212 6000 RA FEW014CB